createdAt,value
2023-04-04T00:00:22.428Z,19.86
2023-04-04T00:01:22.468Z,19.86
2023-04-04T00:02:22.569Z,19.86
2023-04-04T00:03:22.736Z,19.86
2023-04-04T00:04:22.728Z,19.86
2023-04-04T00:05:22.693Z,19.86
2023-04-04T00:06:22.775Z,19.85
2023-04-04T00:07:22.796Z,19.86
2023-04-04T00:08:22.915Z,19.85
2023-04-04T00:09:22.913Z,19.85
2023-04-04T00:10:22.970Z,19.85
2023-04-04T00:11:23.017Z,19.85
2023-04-04T00:12:24.799Z,19.85
2023-04-04T00:13:23.072Z,19.85
2023-04-04T00:14:23.157Z,19.85
2023-04-04T00:15:23.095Z,19.85
2023-04-04T00:16:23.232Z,19.85
2023-04-04T00:17:23.114Z,19.84
2023-04-04T00:18:23.133Z,19.84
2023-04-04T00:19:23.145Z,19.85
2023-04-04T00:20:23.150Z,19.84
2023-04-04T00:21:24.115Z,19.84
2023-04-04T00:22:23.164Z,19.84
2023-04-04T00:23:23.176Z,19.84
2023-04-04T00:24:23.201Z,19.84
2023-04-04T00:25:23.210Z,19.84
2023-04-04T00:26:23.190Z,19.83
2023-04-04T00:27:23.218Z,19.84
2023-04-04T00:28:23.222Z,19.83
2023-04-04T00:29:23.204Z,19.84
2023-04-04T00:30:23.235Z,19.83
2023-04-04T00:31:23.239Z,19.83
2023-04-04T00:32:23.351Z,19.83
2023-04-04T00:33:23.278Z,19.83
2023-04-04T00:34:23.246Z,19.83
2023-04-04T00:35:23.264Z,19.83
2023-04-04T00:36:23.309Z,19.83
2023-04-04T00:37:23.281Z,19.82
2023-04-04T00:38:23.309Z,19.83
2023-04-04T00:39:23.307Z,19.82
2023-04-04T00:40:23.313Z,19.82
2023-04-04T00:41:23.318Z,19.82
2023-04-04T00:42:23.324Z,19.81
2023-04-04T00:43:23.328Z,19.81
2023-04-04T00:44:23.346Z,19.81
2023-04-04T00:45:23.527Z,19.82
2023-04-04T00:46:23.368Z,19.81
2023-04-04T00:47:23.457Z,19.81
2023-04-04T00:48:23.386Z,19.81
2023-04-04T00:49:23.399Z,19.81
2023-04-04T00:50:23.400Z,19.80
2023-04-04T00:51:23.454Z,19.80
2023-04-04T00:52:24.161Z,19.81
2023-04-04T00:53:23.587Z,19.81
2023-04-04T00:54:23.628Z,19.81
2023-04-04T00:55:23.684Z,19.80
2023-04-04T00:56:23.741Z,19.80
2023-04-04T00:57:23.807Z,19.80
2023-04-04T00:58:23.872Z,19.81
2023-04-04T00:59:24.015Z,19.80
2023-04-04T01:00:24.051Z,19.79
2023-04-04T01:01:24.087Z,19.79
2023-04-04T01:02:24.132Z,19.79
2023-04-04T01:03:24.175Z,19.79
2023-04-04T01:04:24.251Z,19.79
2023-04-04T01:05:24.293Z,19.79
2023-04-04T01:06:24.350Z,19.79
2023-04-04T01:07:24.405Z,19.79
2023-04-04T01:08:24.481Z,19.80
2023-04-04T01:09:24.530Z,19.79
2023-04-04T01:10:24.591Z,19.78
2023-04-04T01:11:24.659Z,19.79
2023-04-04T01:12:24.708Z,19.79
2023-04-04T01:13:24.770Z,19.79
2023-04-04T01:14:24.841Z,19.79
2023-04-04T01:15:24.891Z,19.79
2023-04-04T01:16:24.989Z,19.77
2023-04-04T01:17:25.017Z,19.78
2023-04-04T01:18:25.082Z,19.78
2023-04-04T01:19:25.152Z,19.79
2023-04-04T01:20:25.215Z,19.78
2023-04-04T01:21:25.272Z,19.78
2023-04-04T01:22:25.343Z,19.78
2023-04-04T01:23:25.402Z,19.77
2023-04-04T01:24:25.631Z,19.79
2023-04-04T01:25:25.517Z,19.79
2023-04-04T01:26:25.577Z,19.78
2023-04-04T01:27:25.625Z,19.79
2023-04-04T01:28:25.682Z,19.79
2023-04-04T01:29:25.747Z,19.79
2023-04-04T01:30:25.803Z,19.79
2023-04-04T01:31:25.926Z,19.79
2023-04-04T01:32:25.940Z,19.79
2023-04-04T01:33:25.995Z,19.80
2023-04-04T01:34:26.039Z,19.79
2023-04-04T01:35:26.088Z,19.80
2023-04-04T01:36:26.191Z,19.80
2023-04-04T01:37:26.208Z,19.80
2023-04-04T01:38:26.266Z,19.80
2023-04-04T01:39:26.329Z,19.81
2023-04-04T01:40:26.382Z,19.81
2023-04-04T01:41:26.471Z,19.81
2023-04-04T01:42:26.500Z,19.82
2023-04-04T01:43:26.557Z,19.82
2023-04-04T01:44:26.618Z,19.82
2023-04-04T01:45:26.669Z,19.82
2023-04-04T01:46:26.838Z,19.83
2023-04-04T01:47:26.867Z,19.83
2023-04-04T01:48:26.833Z,19.83
2023-04-04T01:49:26.889Z,19.83
2023-04-04T01:50:26.932Z,19.84
2023-04-04T01:51:26.996Z,19.84
2023-04-04T01:52:27.051Z,19.84
2023-04-04T01:53:27.110Z,19.84
2023-04-04T01:54:27.171Z,19.84
2023-04-04T01:55:27.244Z,19.83
2023-04-04T01:56:27.290Z,19.84
2023-04-04T01:57:27.387Z,19.84
2023-04-04T01:58:27.381Z,19.85
2023-04-04T01:59:27.524Z,19.84
2023-04-04T02:00:27.493Z,19.84
2023-04-04T02:01:27.634Z,19.85
2023-04-04T02:02:27.678Z,19.85
2023-04-04T02:03:27.681Z,19.84
2023-04-04T02:04:27.798Z,19.84
2023-04-04T02:05:27.773Z,19.85
2023-04-04T02:06:27.836Z,19.85
2023-04-04T02:07:27.886Z,19.85
2023-04-04T02:08:27.946Z,19.85
2023-04-04T02:09:28.170Z,19.85
2023-04-04T02:10:28.055Z,19.85
2023-04-04T02:11:28.112Z,19.85
2023-04-04T02:12:28.143Z,19.85
2023-04-04T02:13:28.203Z,19.85
2023-04-04T02:14:28.257Z,19.86
2023-04-04T02:15:28.308Z,19.85
2023-04-04T02:16:28.350Z,19.86
2023-04-04T02:17:28.490Z,19.86
2023-04-04T02:18:28.451Z,19.86
2023-04-04T02:19:28.492Z,19.86
2023-04-04T02:20:28.536Z,19.86
2023-04-04T02:21:28.596Z,19.86
2023-04-04T02:22:28.639Z,19.87
2023-04-04T02:23:28.703Z,19.86
2023-04-04T02:24:28.764Z,19.87
2023-04-04T02:25:28.804Z,19.87
2023-04-04T02:26:28.864Z,19.86
2023-04-04T02:27:28.910Z,19.87
2023-04-04T02:28:28.962Z,19.87
2023-04-04T02:29:29.021Z,19.87
2023-04-04T02:30:29.073Z,19.87
2023-04-04T02:31:29.226Z,19.87
2023-04-04T02:32:29.322Z,19.87
2023-04-04T02:33:29.228Z,19.87
2023-04-04T02:34:29.275Z,19.87
2023-04-04T02:35:29.352Z,19.88
2023-04-04T02:36:29.397Z,19.88
2023-04-04T02:37:29.459Z,19.88
2023-04-04T02:38:29.512Z,19.88
2023-04-04T02:39:29.563Z,19.87
2023-04-04T02:40:30.155Z,19.88
2023-04-04T02:41:29.680Z,19.88
2023-04-04T02:42:29.714Z,19.88
2023-04-04T02:43:29.766Z,19.88
2023-04-04T02:44:29.828Z,19.88
2023-04-04T02:45:29.876Z,19.88
2023-04-04T02:46:29.959Z,19.88
2023-04-04T02:47:30.050Z,19.88
2023-04-04T02:48:30.043Z,19.88
2023-04-04T02:49:30.075Z,19.89
2023-04-04T02:50:30.143Z,19.88
2023-04-04T02:51:30.175Z,19.88
2023-04-04T02:52:30.227Z,19.89
2023-04-04T02:53:30.268Z,19.88
2023-04-04T02:54:30.339Z,19.89
2023-04-04T02:55:30.383Z,19.88
2023-04-04T02:56:30.429Z,19.89
2023-04-04T02:57:30.476Z,19.89
2023-04-04T02:58:30.532Z,19.88
2023-04-04T02:59:31.229Z,19.88
2023-04-04T03:00:30.643Z,19.89
2023-04-04T03:01:30.759Z,19.89
2023-04-04T03:02:31.036Z,19.88
2023-04-04T03:03:31.057Z,19.88
2023-04-04T03:04:30.833Z,19.89
2023-04-04T03:05:30.952Z,19.89
2023-04-04T03:06:30.943Z,19.89
2023-04-04T03:07:30.991Z,19.89
2023-04-04T03:08:31.034Z,19.89
2023-04-04T03:09:31.126Z,19.89
2023-04-04T03:10:31.671Z,19.89
2023-04-04T03:11:31.188Z,19.89
2023-04-04T03:12:31.309Z,19.89
2023-04-04T03:13:31.295Z,19.89
2023-04-04T03:14:31.425Z,19.89
2023-04-04T03:15:31.417Z,19.89
2023-04-04T03:16:31.494Z,19.90
2023-04-04T03:17:31.542Z,19.90
2023-04-04T03:18:31.572Z,19.89
2023-04-04T03:19:31.623Z,19.89
2023-04-04T03:20:31.681Z,19.90
2023-04-04T03:21:31.730Z,19.89
2023-04-04T03:22:31.775Z,19.89
2023-04-04T03:23:31.831Z,19.90
2023-04-04T03:24:32.672Z,19.89
2023-04-04T03:25:31.922Z,19.90
2023-04-04T03:26:31.987Z,19.90
2023-04-04T03:27:32.022Z,19.89
2023-04-04T03:28:32.077Z,19.89
2023-04-04T03:29:32.683Z,19.90
2023-04-04T03:30:32.189Z,19.90
2023-04-04T03:31:32.234Z,19.89
2023-04-04T03:32:32.386Z,19.90
2023-04-04T03:33:32.326Z,19.90
2023-04-04T03:34:32.377Z,19.90
2023-04-04T03:35:32.474Z,19.90
2023-04-04T03:36:32.477Z,19.90
2023-04-04T03:37:32.536Z,19.90
2023-04-04T03:38:32.570Z,19.90
2023-04-04T03:39:32.624Z,19.90
2023-04-04T03:40:32.679Z,19.90
2023-04-04T03:41:32.708Z,19.89
2023-04-04T03:42:32.773Z,19.91
2023-04-04T03:43:32.832Z,19.89
2023-04-04T03:44:32.868Z,19.90
2023-04-04T03:45:32.937Z,19.89
2023-04-04T03:46:34.732Z,19.90
2023-04-04T03:47:33.017Z,19.89
2023-04-04T03:48:33.087Z,19.89
2023-04-04T03:49:32.970Z,19.90
2023-04-04T03:50:32.962Z,19.90
2023-04-04T03:51:32.995Z,19.90
2023-04-04T03:52:32.984Z,19.90
2023-04-04T03:53:32.983Z,19.89
2023-04-04T03:54:32.993Z,19.89
2023-04-04T03:55:32.991Z,19.90
2023-04-04T03:56:33.002Z,19.90
2023-04-04T03:57:32.999Z,19.90
2023-04-04T03:58:33.017Z,19.89
2023-04-04T03:59:33.037Z,19.90
2023-04-04T04:00:33.037Z,19.89
2023-04-04T04:01:33.032Z,19.89
2023-04-04T04:02:33.085Z,19.90
2023-04-04T04:03:33.176Z,19.90
2023-04-04T04:04:33.108Z,19.90
2023-04-04T04:05:33.071Z,19.89
2023-04-04T04:06:33.074Z,19.90
2023-04-04T04:07:33.079Z,19.90
2023-04-04T04:08:33.107Z,19.90
2023-04-04T04:09:33.108Z,19.90
2023-04-04T04:10:33.110Z,19.90
2023-04-04T04:11:33.678Z,19.90
2023-04-04T04:12:33.118Z,19.90
2023-04-04T04:13:33.121Z,19.90
2023-04-04T04:14:33.138Z,19.91
2023-04-04T04:15:33.156Z,19.90
2023-04-04T04:16:33.242Z,19.91
2023-04-04T04:17:33.218Z,19.90
2023-04-04T04:18:33.162Z,19.89
2023-04-04T04:19:33.758Z,19.91
2023-04-04T04:20:33.187Z,19.91
2023-04-04T04:21:33.699Z,19.91
2023-04-04T04:22:33.188Z,19.90
2023-04-04T04:23:33.191Z,19.90
2023-04-04T04:24:33.200Z,19.90
2023-04-04T04:25:33.198Z,19.90
2023-04-04T04:26:33.197Z,19.90
2023-04-04T04:27:33.201Z,19.90
2023-04-04T04:28:34.423Z,19.90
2023-04-04T04:29:33.204Z,19.90
2023-04-04T04:30:33.213Z,19.90
2023-04-04T04:31:33.207Z,19.90
2023-04-04T04:32:33.208Z,19.90
2023-04-04T04:33:33.214Z,19.90
2023-04-04T04:34:33.210Z,19.91
2023-04-04T04:35:33.220Z,19.89
2023-04-04T04:36:33.294Z,19.90
2023-04-04T04:37:33.231Z,19.90
2023-04-04T04:38:33.237Z,19.90
2023-04-04T04:39:33.255Z,19.90
2023-04-04T04:40:33.247Z,19.90
2023-04-04T04:41:33.277Z,19.90
2023-04-04T04:42:33.327Z,19.90
2023-04-04T04:43:33.368Z,19.91
2023-04-04T04:44:33.467Z,19.90
2023-04-04T04:45:33.487Z,19.90
2023-04-04T04:46:33.584Z,19.89
2023-04-04T04:47:33.661Z,19.90
2023-04-04T04:48:33.647Z,19.90
2023-04-04T04:49:34.206Z,19.91
2023-04-04T04:50:33.733Z,19.90
2023-04-04T04:51:33.795Z,19.90
2023-04-04T04:52:33.836Z,19.90
2023-04-04T04:53:33.884Z,19.90
2023-04-04T04:54:33.935Z,19.90
2023-04-04T04:55:33.996Z,19.90
2023-04-04T04:56:34.043Z,19.90
2023-04-04T04:57:34.079Z,19.90
2023-04-04T04:58:34.125Z,19.91
2023-04-04T04:59:34.187Z,19.89
2023-04-04T05:00:34.275Z,19.90
2023-04-04T05:01:34.319Z,19.90
2023-04-04T05:02:34.435Z,19.90
2023-04-04T05:03:34.371Z,19.90
2023-04-04T05:04:34.431Z,19.89
2023-04-04T05:05:34.505Z,19.90
2023-04-04T05:06:34.517Z,19.90
2023-04-04T05:07:34.559Z,19.90
2023-04-04T05:08:34.606Z,19.91
2023-04-04T05:09:34.654Z,19.90
2023-04-04T05:10:34.697Z,19.90
2023-04-04T05:11:34.752Z,19.90
2023-04-04T05:12:34.800Z,19.90
2023-04-04T05:13:34.851Z,19.91
2023-04-04T05:14:34.904Z,19.90
2023-04-04T05:15:34.950Z,19.90
2023-04-04T05:16:35.044Z,19.89
2023-04-04T05:17:35.090Z,19.90
2023-04-04T05:18:35.118Z,19.90
2023-04-04T05:19:35.198Z,19.90
2023-04-04T05:20:35.215Z,19.90
2023-04-04T05:21:35.275Z,19.90
2023-04-04T05:22:35.289Z,19.90
2023-04-04T05:23:35.337Z,19.90
2023-04-04T05:24:35.453Z,19.90
2023-04-04T05:25:35.422Z,19.90
2023-04-04T05:26:35.475Z,19.90
2023-04-04T05:27:35.545Z,19.90
2023-04-04T05:28:35.564Z,19.91
2023-04-04T05:29:35.596Z,19.91
2023-04-04T05:30:35.655Z,19.91
2023-04-04T05:31:35.724Z,19.91
2023-04-04T05:32:35.752Z,19.92
2023-04-04T05:33:35.780Z,19.91
2023-04-04T05:34:35.821Z,19.91
2023-04-04T05:35:35.924Z,19.91
2023-04-04T05:36:35.951Z,19.91
2023-04-04T05:37:35.966Z,19.92
2023-04-04T05:38:35.994Z,19.92
2023-04-04T05:39:36.027Z,19.91
2023-04-04T05:40:36.148Z,19.91
2023-04-04T05:41:36.117Z,19.91
2023-04-04T05:42:36.154Z,19.91
2023-04-04T05:43:36.202Z,19.92
2023-04-04T05:44:36.239Z,19.91
2023-04-04T05:45:36.298Z,19.91
2023-04-04T05:46:36.349Z,19.92
2023-04-04T05:47:36.387Z,19.91
2023-04-04T05:48:36.405Z,19.92
2023-04-04T05:49:36.453Z,19.92
2023-04-04T05:50:36.484Z,19.92
2023-04-04T05:51:36.525Z,19.93
2023-04-04T05:52:36.572Z,19.93
2023-04-04T05:53:36.615Z,19.93
2023-04-04T05:54:36.654Z,19.92
2023-04-04T05:55:36.712Z,19.93
2023-04-04T05:56:36.757Z,19.93
2023-04-04T05:57:36.782Z,19.93
2023-04-04T05:58:36.845Z,19.93
2023-04-04T05:59:36.860Z,19.93
2023-04-04T06:00:36.952Z,19.92
2023-04-04T06:01:36.898Z,19.93
2023-04-04T06:02:36.987Z,19.93
2023-04-04T06:03:38.019Z,19.92
2023-04-04T06:04:36.920Z,19.93
2023-04-04T06:05:36.949Z,19.93
2023-04-04T06:06:36.926Z,19.93
2023-04-04T06:07:36.928Z,19.93
2023-04-04T06:08:50.095Z,19.94
2023-04-04T06:09:37.930Z,19.92
2023-04-04T06:10:37.114Z,19.93
2023-04-04T06:11:36.940Z,19.93
2023-04-04T06:12:36.936Z,19.94
2023-04-04T06:13:36.944Z,19.94
2023-04-04T06:14:37.024Z,19.93
2023-04-04T06:15:36.963Z,19.94
2023-04-04T06:16:37.085Z,19.94
2023-04-04T06:17:37.073Z,19.94
2023-04-04T06:18:36.941Z,19.94
2023-04-04T06:19:36.939Z,19.94
2023-04-04T06:20:36.973Z,19.94
2023-04-04T06:21:36.967Z,19.94
2023-04-04T06:22:36.995Z,19.94
2023-04-04T06:23:37.030Z,19.95
2023-04-04T06:24:37.589Z,19.94
2023-04-04T06:25:37.117Z,19.93
2023-04-04T06:26:37.166Z,19.94
2023-04-04T06:27:37.210Z,19.94
2023-04-04T06:28:37.250Z,19.95
2023-04-04T06:29:37.298Z,19.95
2023-04-04T06:30:37.424Z,19.94
2023-04-04T06:31:37.782Z,19.95
2023-04-04T06:32:37.413Z,19.95
2023-04-04T06:33:37.443Z,19.94
2023-04-04T06:34:37.501Z,19.94
2023-04-04T06:35:37.515Z,19.95
2023-04-04T06:36:37.561Z,19.94
2023-04-04T06:37:37.597Z,19.95
2023-04-04T06:38:37.633Z,19.95
2023-04-04T06:39:37.662Z,19.95
2023-04-04T06:40:38.108Z,19.95
2023-04-04T06:41:37.742Z,19.95
2023-04-04T06:42:37.771Z,19.95
2023-04-04T06:43:37.826Z,19.95
2023-04-04T06:44:37.947Z,19.94
2023-04-04T06:45:37.913Z,19.95
2023-04-04T06:46:37.992Z,19.95
2023-04-04T06:47:37.982Z,19.95
2023-04-04T06:48:38.015Z,19.95
2023-04-04T06:49:38.065Z,19.95
2023-04-04T06:50:38.313Z,19.95
2023-04-04T06:51:38.152Z,19.95
2023-04-04T06:52:39.726Z,19.96
2023-04-04T06:53:38.223Z,19.96
2023-04-04T06:54:38.270Z,19.96
2023-04-04T06:55:38.327Z,19.96
2023-04-04T06:56:38.432Z,19.96
2023-04-04T06:57:38.394Z,19.96
2023-04-04T06:58:38.422Z,19.96
2023-04-04T06:59:38.477Z,19.96
2023-04-04T07:00:38.790Z,19.96
2023-04-04T07:01:38.543Z,19.96
2023-04-04T07:02:38.750Z,19.96
2023-04-04T07:03:38.630Z,19.96
2023-04-04T07:04:38.679Z,19.96
2023-04-04T07:05:38.734Z,19.96
2023-04-04T07:06:38.768Z,19.96
2023-04-04T07:07:38.811Z,19.96
2023-04-04T07:08:38.888Z,19.96
2023-04-04T07:09:38.939Z,19.97
2023-04-04T07:10:40.034Z,19.96
2023-04-04T07:11:38.978Z,19.96
2023-04-04T07:12:39.013Z,19.96
2023-04-04T07:13:39.061Z,19.97
2023-04-04T07:14:39.092Z,19.97
2023-04-04T07:15:39.122Z,19.97
2023-04-04T07:16:39.204Z,19.97
2023-04-04T07:17:39.236Z,19.97
2023-04-04T07:18:39.243Z,19.98
2023-04-04T07:19:39.282Z,19.99
2023-04-04T07:20:39.496Z,19.98
2023-04-04T07:21:39.425Z,19.99
2023-04-04T07:22:39.416Z,19.99
2023-04-04T07:23:39.428Z,20.00
2023-04-04T07:24:39.473Z,20.00
2023-04-04T07:25:39.499Z,20.00
2023-04-04T07:26:39.596Z,20.00
2023-04-04T07:27:39.586Z,20.00
2023-04-04T07:28:39.614Z,20.01
2023-04-04T07:29:39.654Z,20.01
2023-04-04T07:30:39.802Z,20.02
2023-04-04T07:31:39.845Z,20.02
2023-04-04T07:32:39.845Z,20.01
2023-04-04T07:33:39.805Z,20.02
2023-04-04T07:34:39.921Z,20.02
2023-04-04T07:35:39.920Z,20.03
2023-04-04T07:36:39.909Z,20.02
2023-04-04T07:37:40.003Z,20.03
2023-04-04T07:38:40.005Z,20.03
2023-04-04T07:39:40.006Z,20.04
2023-04-04T07:40:40.340Z,20.04
2023-04-04T07:41:40.087Z,20.04
2023-04-04T07:42:40.104Z,20.05
2023-04-04T07:43:40.148Z,20.04
2023-04-04T07:44:40.750Z,20.05
2023-04-04T07:45:40.210Z,20.05
2023-04-04T07:46:40.228Z,20.05
2023-04-04T07:47:40.335Z,20.05
2023-04-04T07:48:40.325Z,20.05
2023-04-04T07:49:40.336Z,20.05
2023-04-04T07:50:40.600Z,20.06
2023-04-04T07:51:40.761Z,20.06
2023-04-04T07:52:40.423Z,20.07
2023-04-04T07:53:40.457Z,20.07
2023-04-04T07:54:40.554Z,20.07
2023-04-04T07:55:40.521Z,20.07
2023-04-04T07:56:40.564Z,20.07
2023-04-04T07:57:40.583Z,20.08
2023-04-04T07:58:40.612Z,20.08
2023-04-04T07:59:40.637Z,20.09
2023-04-04T08:00:40.794Z,20.08
2023-04-04T08:01:40.696Z,20.09
2023-04-04T08:02:40.842Z,20.10
2023-04-04T08:03:41.449Z,20.09
2023-04-04T08:04:40.939Z,20.09
2023-04-04T08:05:40.818Z,20.09
2023-04-04T08:06:40.855Z,20.09
2023-04-04T08:07:40.876Z,20.10
2023-04-04T08:08:40.912Z,20.10
2023-04-04T08:09:40.932Z,20.10
2023-04-04T08:10:41.186Z,20.10
2023-04-04T08:11:40.988Z,20.10
2023-04-04T08:12:41.007Z,20.10
2023-04-04T08:13:41.048Z,20.11
2023-04-04T08:14:41.066Z,20.11
2023-04-04T08:15:41.832Z,20.11
2023-04-04T08:16:41.147Z,20.11
2023-04-04T08:17:41.155Z,20.11
2023-04-04T08:18:41.186Z,20.11
2023-04-04T08:19:41.203Z,20.11
2023-04-04T08:20:41.425Z,20.12
2023-04-04T08:21:41.287Z,20.12
2023-04-04T08:22:41.292Z,20.12
2023-04-04T08:23:41.347Z,20.12
2023-04-04T08:24:41.352Z,20.12
2023-04-04T08:25:41.381Z,20.12
2023-04-04T08:26:42.329Z,20.12
2023-04-04T08:27:41.444Z,20.13
2023-04-04T08:28:41.523Z,20.13
2023-04-04T08:29:41.488Z,20.13
2023-04-04T08:30:41.636Z,20.14
2023-04-04T08:31:41.550Z,20.13
2023-04-04T08:32:41.708Z,20.13
2023-04-04T08:33:47.361Z,20.13
2023-04-04T08:34:42.582Z,20.13
2023-04-04T08:35:41.615Z,20.14
2023-04-04T08:36:41.562Z,20.13
2023-04-04T08:37:41.552Z,20.13
2023-04-04T08:38:41.572Z,20.14
2023-04-04T08:39:41.549Z,20.14
2023-04-04T08:40:41.858Z,20.14
2023-04-04T08:41:41.625Z,20.14
2023-04-04T08:42:41.594Z,20.14
2023-04-04T08:43:41.618Z,20.15
2023-04-04T08:44:41.636Z,20.15
2023-04-04T08:45:41.564Z,20.14
2023-04-04T08:46:41.597Z,20.14
2023-04-04T08:47:41.623Z,20.15
2023-04-04T08:48:41.593Z,20.15
2023-04-04T08:49:41.594Z,20.15
2023-04-04T08:50:41.811Z,20.15
2023-04-04T08:51:43.600Z,20.15
2023-04-04T08:52:41.588Z,20.15
2023-04-04T08:53:41.668Z,20.15
2023-04-04T08:54:41.805Z,20.16
2023-04-04T08:55:41.588Z,20.15
2023-04-04T08:56:41.570Z,20.15
2023-04-04T08:57:41.581Z,20.15
2023-04-04T08:58:41.605Z,20.16
2023-04-04T08:59:41.646Z,20.16
2023-04-04T09:00:42.423Z,20.17
2023-04-04T09:01:41.578Z,20.16
2023-04-04T09:02:41.673Z,20.17
2023-04-04T09:03:41.579Z,20.17
2023-04-04T09:04:42.989Z,20.17
2023-04-04T09:05:41.578Z,20.17
2023-04-04T09:06:41.566Z,20.17
2023-04-04T09:07:41.579Z,20.18
2023-04-04T09:08:41.584Z,20.17
2023-04-04T09:09:41.577Z,20.18
2023-04-04T09:10:41.727Z,20.18
2023-04-04T09:11:41.858Z,20.18
2023-04-04T09:12:41.679Z,20.18
2023-04-04T09:13:41.593Z,20.19
2023-04-04T09:14:41.565Z,20.19
2023-04-04T09:15:41.581Z,20.19
2023-04-04T09:16:41.627Z,20.19
2023-04-04T09:17:41.623Z,20.19
2023-04-04T09:18:41.581Z,20.19
2023-04-04T09:19:41.575Z,20.19
2023-04-04T09:20:41.929Z,20.20
2023-04-04T09:21:41.595Z,20.19
2023-04-04T09:22:41.606Z,20.19
2023-04-04T09:23:41.624Z,20.20
2023-04-04T09:24:41.634Z,20.20
2023-04-04T09:25:45.302Z,20.20
2023-04-04T09:26:42.660Z,20.19
2023-04-04T09:27:41.642Z,20.19
2023-04-04T09:28:41.636Z,20.20
2023-04-04T09:29:41.656Z,20.20
2023-04-04T09:30:41.959Z,20.20
2023-04-04T09:31:41.720Z,20.21
2023-04-04T09:32:41.673Z,20.21
2023-04-04T09:33:41.681Z,20.21
2023-04-04T09:34:41.667Z,20.20
2023-04-04T09:35:42.315Z,20.21
2023-04-04T09:36:42.291Z,20.21
2023-04-04T09:37:41.670Z,20.21
2023-04-04T09:38:41.677Z,20.21
2023-04-04T09:39:41.686Z,20.22
2023-04-04T09:40:42.054Z,20.21
2023-04-04T09:41:41.685Z,20.22
2023-04-04T09:42:41.693Z,20.23
2023-04-04T09:43:41.729Z,20.23
2023-04-04T09:44:41.719Z,20.22
2023-04-04T09:45:41.757Z,20.23
2023-04-04T09:46:41.900Z,20.23
2023-04-04T09:47:41.746Z,20.23
2023-04-04T09:48:41.726Z,20.23
2023-04-04T09:49:41.773Z,20.23
2023-04-04T09:50:42.096Z,20.23
2023-04-04T09:51:41.731Z,20.23
2023-04-04T09:52:41.727Z,20.23
2023-04-04T09:53:41.737Z,20.24
2023-04-04T09:54:48.070Z,20.25
2023-04-04T09:55:42.734Z,20.24
2023-04-04T09:56:41.735Z,20.24
2023-04-04T09:57:41.777Z,20.24
2023-04-04T09:58:52.393Z,20.25
2023-04-04T09:59:42.823Z,20.24
2023-04-04T10:00:41.808Z,20.25
2023-04-04T10:01:41.773Z,20.25
2023-04-04T10:02:41.832Z,20.26
2023-04-04T10:03:41.765Z,20.26
2023-04-04T10:04:41.748Z,20.26
2023-04-04T10:05:41.744Z,20.27
2023-04-04T10:06:41.738Z,20.27
2023-04-04T10:07:41.745Z,20.28
2023-04-04T10:08:41.848Z,20.28
2023-04-04T10:09:41.759Z,20.28
2023-04-04T10:10:41.809Z,20.29
2023-04-04T10:11:41.754Z,20.29
2023-04-04T10:12:41.836Z,20.30
2023-04-04T10:13:42.386Z,20.31
2023-04-04T10:14:41.806Z,20.32
2023-04-04T10:15:41.800Z,20.31
2023-04-04T10:16:41.760Z,20.33
2023-04-04T10:17:41.938Z,20.33
2023-04-04T10:18:41.788Z,20.33
2023-04-04T10:19:41.766Z,20.34
2023-04-04T10:20:42.302Z,20.34
2023-04-04T10:21:41.855Z,20.36
2023-04-04T10:22:42.999Z,20.36
2023-04-04T10:23:41.781Z,20.36
2023-04-04T10:24:41.767Z,20.37
2023-04-04T10:25:41.766Z,20.38
2023-04-04T10:26:41.782Z,20.39
2023-04-04T10:27:41.769Z,20.39
2023-04-04T10:28:41.839Z,20.40
2023-04-04T10:29:41.772Z,20.41
2023-04-04T10:30:49.807Z,20.42
2023-04-04T10:31:42.792Z,20.42
2023-04-04T10:32:41.803Z,20.43
2023-04-04T10:33:41.832Z,20.43
2023-04-04T10:34:41.783Z,20.45
2023-04-04T10:35:41.813Z,20.46
2023-04-04T10:36:41.769Z,20.46
2023-04-04T10:37:41.774Z,20.48
2023-04-04T10:38:41.769Z,20.48
2023-04-04T10:39:41.779Z,20.49
2023-04-04T10:40:42.053Z,20.50
2023-04-04T10:41:41.779Z,20.51
2023-04-04T10:42:41.832Z,20.52
2023-04-04T10:43:41.784Z,20.53
2023-04-04T10:44:41.808Z,20.54
2023-04-04T10:45:41.909Z,20.55
2023-04-04T10:46:41.817Z,20.56
2023-04-04T10:47:41.859Z,20.57
2023-04-04T10:48:41.799Z,20.58
2023-04-04T10:49:41.777Z,20.59
2023-04-04T10:50:41.788Z,20.60
2023-04-04T10:51:53.007Z,20.61
2023-04-04T10:52:42.887Z,20.62
2023-04-04T10:53:41.760Z,20.63
2023-04-04T10:54:41.762Z,20.64
2023-04-04T10:55:42.008Z,20.65
2023-04-04T10:56:41.763Z,20.66
2023-04-04T10:57:41.762Z,20.67
2023-04-04T10:58:41.776Z,20.69
2023-04-04T10:59:41.759Z,20.70
2023-04-04T11:00:41.834Z,20.70
2023-04-04T11:01:41.870Z,20.72
2023-04-04T11:02:41.983Z,20.74
2023-04-04T11:03:42.033Z,20.74
2023-04-04T11:04:42.118Z,20.76
2023-04-04T11:05:42.646Z,20.76
2023-04-04T11:06:42.173Z,20.77
2023-04-04T11:07:42.245Z,20.79
2023-04-04T11:08:42.303Z,20.80
2023-04-04T11:09:42.368Z,20.81
2023-04-04T11:10:42.431Z,20.81
2023-04-04T11:11:42.497Z,20.83
2023-04-04T11:12:42.546Z,20.84
2023-04-04T11:13:42.596Z,20.86
2023-04-04T11:14:42.656Z,20.86
2023-04-04T11:15:42.728Z,20.87
2023-04-04T11:16:42.817Z,20.88
2023-04-04T11:17:42.871Z,20.89
2023-04-04T11:18:42.900Z,20.90
2023-04-04T11:19:42.932Z,20.91
2023-04-04T11:20:42.988Z,20.93
2023-04-04T11:21:43.049Z,20.93
2023-04-04T11:22:43.089Z,20.94
2023-04-04T11:23:43.144Z,20.96
2023-04-04T11:24:43.335Z,20.96
2023-04-04T11:25:43.360Z,20.98
2023-04-04T11:26:43.334Z,20.98
2023-04-04T11:27:43.365Z,20.99
2023-04-04T11:28:43.383Z,21.00
2023-04-04T11:29:43.421Z,21.01
2023-04-04T11:30:43.457Z,21.02
2023-04-04T11:31:43.594Z,21.03
2023-04-04T11:32:50.088Z,21.04
2023-04-04T11:33:44.524Z,21.04
2023-04-04T11:34:43.516Z,21.07
2023-04-04T11:35:43.740Z,21.08
2023-04-04T11:36:43.502Z,21.09
2023-04-04T11:37:43.499Z,21.10
2023-04-04T11:38:43.484Z,21.10
2023-04-04T11:39:43.481Z,21.13
2023-04-04T11:40:43.477Z,21.14
2023-04-04T11:41:43.465Z,21.14
2023-04-04T11:42:43.454Z,21.16
2023-04-04T11:43:43.444Z,21.17
2023-04-04T11:44:43.434Z,21.19
2023-04-04T11:45:43.450Z,21.20
2023-04-04T11:46:43.429Z,21.21
2023-04-04T11:47:43.489Z,21.23
2023-04-04T11:48:43.442Z,21.24
2023-04-04T11:49:43.408Z,21.26
2023-04-04T11:50:43.446Z,21.27
2023-04-04T11:51:43.377Z,21.28
2023-04-04T11:52:43.401Z,21.29
2023-04-04T11:53:43.429Z,21.30
2023-04-04T11:54:43.369Z,21.32
2023-04-04T11:55:43.440Z,21.33
2023-04-04T11:56:43.357Z,21.35
2023-04-04T11:57:43.402Z,21.36
2023-04-04T11:58:43.334Z,21.38
2023-04-04T11:59:43.367Z,21.40
2023-04-04T12:00:43.325Z,21.40
2023-04-04T12:01:43.333Z,21.41
2023-04-04T12:02:43.963Z,21.43
2023-04-04T12:03:43.353Z,21.44
2023-04-04T12:04:43.826Z,21.45
2023-04-04T12:05:43.687Z,21.46
2023-04-04T12:06:43.315Z,21.47
2023-04-04T12:07:43.324Z,21.49
2023-04-04T12:08:43.282Z,21.50
2023-04-04T12:09:43.279Z,21.50
2023-04-04T12:10:43.273Z,21.52
2023-04-04T12:11:43.345Z,21.53
2023-04-04T12:12:43.352Z,21.55
2023-04-04T12:13:43.319Z,21.55
2023-04-04T12:14:43.334Z,21.56
2023-04-04T12:15:43.576Z,21.57
2023-04-04T12:16:43.405Z,21.59
2023-04-04T12:17:43.529Z,21.60
2023-04-04T12:18:43.475Z,21.62
2023-04-04T12:19:43.559Z,21.62
2023-04-04T12:20:43.551Z,21.63
2023-04-04T12:21:43.598Z,21.65
2023-04-04T12:22:43.657Z,21.65
2023-04-04T12:23:43.702Z,21.67
2023-04-04T12:24:43.750Z,21.68
2023-04-04T12:25:43.813Z,21.68
2023-04-04T12:26:43.861Z,21.71
2023-04-04T12:27:43.902Z,21.72
2023-04-04T12:28:43.967Z,21.73
2023-04-04T12:29:44.013Z,21.74
2023-04-04T12:30:44.058Z,21.76
2023-04-04T12:31:44.149Z,21.76
2023-04-04T12:32:44.171Z,21.78
2023-04-04T12:33:44.209Z,21.78
2023-04-04T12:34:48.484Z,21.80
2023-04-04T12:35:45.249Z,21.79
2023-04-04T12:36:44.204Z,21.81
2023-04-04T12:37:44.191Z,21.84
2023-04-04T12:38:44.172Z,21.84
2023-04-04T12:39:44.251Z,21.85
2023-04-04T12:40:44.394Z,21.87
2023-04-04T12:41:44.250Z,21.88
2023-04-04T12:42:44.126Z,21.89
2023-04-04T12:43:44.110Z,21.89
2023-04-04T12:44:44.096Z,21.90
2023-04-04T12:45:44.095Z,21.91
2023-04-04T12:47:44.175Z,21.94
2023-04-04T12:48:44.159Z,21.94
2023-04-04T12:49:44.203Z,21.95
2023-04-04T12:50:44.198Z,21.96
2023-04-04T12:51:44.223Z,21.97
2023-04-04T12:52:45.077Z,21.98
2023-04-04T12:53:44.337Z,21.99